sensor_id;sensor_type;location;lat;lon;timestamp;P1;durP1;ratioP1;P2;durP2;ratioP2
63699;SDS011;49845;47.130;142.766;2023-01-05T00:05:43;14.90;;;5.53;;
63699;SDS011;49845;47.130;142.766;2023-01-05T00:08:20;28.58;;;10.60;;
63699;SDS011;49845;47.130;142.766;2023-01-05T00:14:37;7.32;;;4.25;;
63699;SDS011;49845;47.130;142.766;2023-01-05T00:17:40;19.90;;;6.97;;
63699;SDS011;49845;47.130;142.766;2023-01-05T00:20:36;9.93;;;3.53;;
63699;SDS011;49845;47.130;142.766;2023-01-05T00:23:46;10.93;;;5.22;;
63699;SDS011;49845;47.130;142.766;2023-01-05T00:29:11;6.85;;;3.58;;
63699;SDS011;49845;47.130;142.766;2023-01-05T00:32:11;5.10;;;2.45;;
63699;SDS011;49845;47.130;142.766;2023-01-05T00:35:07;9.18;;;2.70;;
63699;SDS011;49845;47.130;142.766;2023-01-05T00:38:13;5.88;;;3.15;;
63699;SDS011;49845;47.130;142.766;2023-01-05T00:41:19;4.53;;;2.75;;
63699;SDS011;49845;47.130;142.766;2023-01-05T00:44:10;5.25;;;2.33;;
63699;SDS011;49845;47.130;142.766;2023-01-05T00:46:46;2.70;;;2.47;;
63699;SDS011;49845;47.130;142.766;2023-01-05T00:49:40;10.75;;;4.25;;
63699;SDS011;49845;47.130;142.766;2023-01-05T00:52:29;14.90;;;7.78;;
63699;SDS011;49845;47.130;142.766;2023-01-05T00:55:34;7.72;;;2.20;;
63699;SDS011;49845;47.130;142.766;2023-01-05T00:58:36;2.75;;;2.38;;
63699;SDS011;49845;47.130;142.766;2023-01-05T01:01:27;2.80;;;2.15;;
63699;SDS011;49845;47.130;142.766;2023-01-05T01:04:42;7.53;;;2.03;;
63699;SDS011;49845;47.130;142.766;2023-01-05T01:10:15;11.13;;;3.83;;
63699;SDS011;49845;47.130;142.766;2023-01-05T01:13:00;10.60;;;3.88;;
63699;SDS011;49845;47.130;142.766;2023-01-05T01:15:37;5.22;;;2.67;;
63699;SDS011;49845;47.130;142.766;2023-01-05T01:18:17;4.68;;;1.90;;
63699;SDS011;49845;47.130;142.766;2023-01-05T01:20:55;3.80;;;2.83;;
63699;SDS011;49845;47.130;142.766;2023-01-05T01:23:40;2.28;;;1.80;;
63699;SDS011;49845;47.130;142.766;2023-01-05T01:26:43;5.63;;;2.88;;
63699;SDS011;49845;47.130;142.766;2023-01-05T01:29:30;8.57;;;2.40;;
63699;SDS011;49845;47.130;142.766;2023-01-05T01:32:18;6.35;;;2.00;;
63699;SDS011;49845;47.130;142.766;2023-01-05T01:35:28;3.40;;;1.63;;
63699;SDS011;49845;47.130;142.766;2023-01-05T01:38:32;4.90;;;2.45;;
63699;SDS011;49845;47.130;142.766;2023-01-05T01:41:13;5.13;;;2.22;;
63699;SDS011;49845;47.130;142.766;2023-01-05T01:47:08;6.97;;;3.38;;
63699;SDS011;49845;47.130;142.766;2023-01-05T01:50:00;4.78;;;1.70;;
63699;SDS011;49845;47.130;142.766;2023-01-05T01:52:42;5.68;;;2.65;;
63699;SDS011;49845;47.130;142.766;2023-01-05T01:55:59;8.23;;;2.45;;
63699;SDS011;49845;47.130;142.766;2023-01-05T01:58:54;4.47;;;1.77;;
63699;SDS011;49845;47.130;142.766;2023-01-05T02:01:32;4.18;;;1.77;;
63699;SDS011;49845;47.130;142.766;2023-01-05T02:04:43;7.97;;;2.22;;
63699;SDS011;49845;47.130;142.766;2023-01-05T02:07:41;4.53;;;1.73;;
63699;SDS011;49845;47.130;142.766;2023-01-05T02:10:14;3.15;;;1.95;;
63699;SDS011;49845;47.130;142.766;2023-01-05T02:16:26;3.15;;;1.77;;
63699;SDS011;49845;47.130;142.766;2023-01-05T02:19:54;3.50;;;1.63;;
63699;SDS011;49845;47.130;142.766;2023-01-05T02:23:20;3.30;;;1.60;;
63699;SDS011;49845;47.130;142.766;2023-01-05T02:27:04;2.13;;;1.73;;
63699;SDS011;49845;47.130;142.766;2023-01-05T02:39:24;4.35;;;1.80;;
63699;SDS011;49845;47.130;142.766;2023-01-05T02:42:11;2.58;;;1.88;;
63699;SDS011;49845;47.130;142.766;2023-01-05T02:45:06;5.82;;;2.03;;
63699;SDS011;49845;47.130;142.766;2023-01-05T02:48:08;5.18;;;2.05;;
63699;SDS011;49845;47.130;142.766;2023-01-05T02:50:48;3.65;;;1.98;;
63699;SDS011;49845;47.130;142.766;2023-01-05T02:53:48;6.95;;;2.53;;
63699;SDS011;49845;47.130;142.766;2023-01-05T02:56:41;4.13;;;1.77;;
63699;SDS011;49845;47.130;142.766;2023-01-05T02:59:40;5.15;;;1.88;;
63699;SDS011;49845;47.130;142.766;2023-01-05T03:02:47;2.67;;;1.70;;
63699;SDS011;49845;47.130;142.766;2023-01-05T03:05:45;4.28;;;2.20;;
63699;SDS011;49845;47.130;142.766;2023-01-05T03:08:59;9.60;;;2.60;;
63699;SDS011;49845;47.130;142.766;2023-01-05T03:11:56;4.95;;;2.08;;
63699;SDS011;49845;47.130;142.766;2023-01-05T03:14:54;3.38;;;1.70;;
63699;SDS011;49845;47.130;142.766;2023-01-05T03:18:03;4.93;;;1.70;;
63699;SDS011;49845;47.130;142.766;2023-01-05T03:20:55;3.05;;;1.67;;
63699;SDS011;49845;47.130;142.766;2023-01-05T03:27:15;5.63;;;1.80;;
63699;SDS011;49845;47.130;142.766;2023-01-05T03:30:17;3.28;;;1.60;;
63699;SDS011;49845;47.130;142.766;2023-01-05T03:33:15;3.33;;;2.00;;
63699;SDS011;49845;47.130;142.766;2023-01-05T03:36:14;4.70;;;2.20;;
63699;SDS011;49845;47.130;142.766;2023-01-05T03:39:01;11.00;;;3.50;;
63699;SDS011;49845;47.130;142.766;2023-01-05T03:44:43;4.80;;;2.40;;
63699;SDS011;49845;47.130;142.766;2023-01-05T03:47:46;2.00;;;1.77;;
63699;SDS011;49845;47.130;142.766;2023-01-05T03:50:39;3.30;;;1.65;;
63699;SDS011;49845;47.130;142.766;2023-01-05T03:53:45;2.08;;;1.48;;
63699;SDS011;49845;47.130;142.766;2023-01-05T03:56:57;3.22;;;1.92;;
63699;SDS011;49845;47.130;142.766;2023-01-05T03:59:54;3.03;;;1.75;;
63699;SDS011;49845;47.130;142.766;2023-01-05T04:02:37;2.78;;;1.90;;
63699;SDS011;49845;47.130;142.766;2023-01-05T04:05:32;5.85;;;1.67;;
63699;SDS011;49845;47.130;142.766;2023-01-05T04:08:25;4.10;;;1.70;;
63699;SDS011;49845;47.130;142.766;2023-01-05T04:11:20;4.90;;;1.88;;
63699;SDS011;49845;47.130;142.766;2023-01-05T04:13:58;4.40;;;1.65;;
63699;SDS011;49845;47.130;142.766;2023-01-05T04:16:46;2.50;;;2.08;;
63699;SDS011;49845;47.130;142.766;2023-01-05T04:19:39;3.42;;;2.50;;
63699;SDS011;49845;47.130;142.766;2023-01-05T04:22:17;3.08;;;1.83;;
63699;SDS011;49845;47.130;142.766;2023-01-05T04:25:20;3.60;;;2.08;;
63699;SDS011;49845;47.130;142.766;2023-01-05T04:28:00;4.38;;;1.98;;
63699;SDS011;49845;47.130;142.766;2023-01-05T04:33:48;5.97;;;1.92;;
63699;SDS011;49845;47.130;142.766;2023-01-05T04:36:39;2.55;;;1.80;;
63699;SDS011;49845;47.130;142.766;2023-01-05T04:39:32;5.30;;;2.25;;
63699;SDS011;49845;47.130;142.766;2023-01-05T04:42:32;7.32;;;2.40;;
63699;SDS011;49845;47.130;142.766;2023-01-05T04:45:09;5.57;;;2.58;;
63699;SDS011;49845;47.130;142.766;2023-01-05T04:47:57;3.92;;;1.90;;
63699;SDS011;49845;47.130;142.766;2023-01-05T04:50:47;2.67;;;1.88;;
63699;SDS011;49845;47.130;142.766;2023-01-05T04:57:04;4.20;;;1.90;;
63699;SDS011;49845;47.130;142.766;2023-01-05T04:59:43;3.95;;;1.80;;
63699;SDS011;49845;47.130;142.766;2023-01-05T05:05:28;6.03;;;1.98;;
63699;SDS011;49845;47.130;142.766;2023-01-05T05:08:14;5.47;;;1.98;;
63699;SDS011;49845;47.130;142.766;2023-01-05T05:11:06;7.05;;;2.00;;
63699;SDS011;49845;47.130;142.766;2023-01-05T05:14:04;4.65;;;1.80;;
63699;SDS011;49845;47.130;142.766;2023-01-05T05:16:52;3.35;;;1.77;;
63699;SDS011;49845;47.130;142.766;2023-01-05T05:19:37;3.88;;;2.00;;
63699;SDS011;49845;47.130;142.766;2023-01-05T05:22:28;3.60;;;1.98;;
63699;SDS011;49845;47.130;142.766;2023-01-05T05:25:22;9.02;;;2.15;;
63699;SDS011;49845;47.130;142.766;2023-01-05T05:28:25;3.15;;;1.80;;
63699;SDS011;49845;47.130;142.766;2023-01-05T05:34:52;4.85;;;1.77;;
63699;SDS011;49845;47.130;142.766;2023-01-05T05:38:13;6.50;;;2.50;;
63699;SDS011;49845;47.130;142.766;2023-01-05T05:44:14;4.40;;;2.00;;
63699;SDS011;49845;47.130;142.766;2023-01-05T05:47:17;3.38;;;1.92;;
63699;SDS011;49845;47.130;142.766;2023-01-05T05:50:04;2.97;;;1.80;;
63699;SDS011;49845;47.130;142.766;2023-01-05T05:52:59;11.23;;;4.15;;
63699;SDS011;49845;47.130;142.766;2023-01-05T05:55:46;9.80;;;3.80;;
63699;SDS011;49845;47.130;142.766;2023-01-05T05:58:40;9.30;;;2.90;;
63699;SDS011;49845;47.130;142.766;2023-01-05T06:01:27;7.07;;;2.42;;
63699;SDS011;49845;47.130;142.766;2023-01-05T06:04:12;4.00;;;2.00;;
63699;SDS011;49845;47.130;142.766;2023-01-05T06:13:33;5.55;;;2.50;;
63699;SDS011;49845;47.130;142.766;2023-01-05T06:16:21;5.88;;;2.13;;
63699;SDS011;49845;47.130;142.766;2023-01-05T06:22:31;5.30;;;1.98;;
63699;SDS011;49845;47.130;142.766;2023-01-05T06:25:16;2.38;;;1.88;;
63699;SDS011;49845;47.130;142.766;2023-01-05T06:28:11;2.90;;;2.22;;
63699;SDS011;49845;47.130;142.766;2023-01-05T06:31:06;3.70;;;1.88;;
63699;SDS011;49845;47.130;142.766;2023-01-05T06:34:04;11.40;;;2.30;;
63699;SDS011;49845;47.130;142.766;2023-01-05T06:36:56;6.95;;;3.10;;
63699;SDS011;49845;47.130;142.766;2023-01-05T06:39:42;8.77;;;2.92;;
63699;SDS011;49845;47.130;142.766;2023-01-05T06:42:29;4.20;;;2.25;;
63699;SDS011;49845;47.130;142.766;2023-01-05T06:45:08;5.95;;;2.88;;
63699;SDS011;49845;47.130;142.766;2023-01-05T06:48:12;9.30;;;4.32;;
63699;SDS011;49845;47.130;142.766;2023-01-05T06:51:05;5.15;;;2.40;;
63699;SDS011;49845;47.130;142.766;2023-01-05T06:53:52;10.43;;;3.67;;
63699;SDS011;49845;47.130;142.766;2023-01-05T06:56:52;9.18;;;4.05;;
63699;SDS011;49845;47.130;142.766;2023-01-05T06:59:49;5.68;;;3.00;;
63699;SDS011;49845;47.130;142.766;2023-01-05T07:02:47;30.08;;;9.40;;
63699;SDS011;49845;47.130;142.766;2023-01-05T07:09:16;17.02;;;6.40;;
63699;SDS011;49845;47.130;142.766;2023-01-05T07:12:09;36.03;;;11.77;;
63699;SDS011;49845;47.130;142.766;2023-01-05T07:14:55;16.98;;;5.60;;
63699;SDS011;49845;47.130;142.766;2023-01-05T07:17:42;6.28;;;3.42;;
63699;SDS011;49845;47.130;142.766;2023-01-05T07:20:25;5.05;;;2.00;;
63699;SDS011;49845;47.130;142.766;2023-01-05T07:23:23;15.50;;;2.80;;
63699;SDS011;49845;47.130;142.766;2023-01-05T07:26:18;8.40;;;2.72;;
63699;SDS011;49845;47.130;142.766;2023-01-05T07:29:14;9.90;;;3.05;;
63699;SDS011;49845;47.130;142.766;2023-01-05T07:32:21;5.93;;;2.60;;
63699;SDS011;49845;47.130;142.766;2023-01-05T07:35:16;3.45;;;1.95;;
63699;SDS011;49845;47.130;142.766;2023-01-05T07:37:55;3.83;;;2.10;;
63699;SDS011;49845;47.130;142.766;2023-01-05T07:43:53;5.35;;;1.83;;
63699;SDS011;49845;47.130;142.766;2023-01-05T07:46:43;8.95;;;2.67;;
63699;SDS011;49845;47.130;142.766;2023-01-05T07:49:24;4.68;;;2.83;;
63699;SDS011;49845;47.130;142.766;2023-01-05T07:52:17;10.55;;;3.28;;
63699;SDS011;49845;47.130;142.766;2023-01-05T07:54:58;6.65;;;2.60;;
63699;SDS011;49845;47.130;142.766;2023-01-05T07:57:49;11.05;;;3.40;;
63699;SDS011;49845;47.130;142.766;2023-01-05T08:01:07;7.03;;;2.90;;
63699;SDS011;49845;47.130;142.766;2023-01-05T08:03:50;7.65;;;2.83;;
63699;SDS011;49845;47.130;142.766;2023-01-05T08:06:38;6.85;;;3.05;;
63699;SDS011;49845;47.130;142.766;2023-01-05T08:09:24;7.05;;;3.00;;
63699;SDS011;49845;47.130;142.766;2023-01-05T08:12:37;10.82;;;3.00;;
63699;SDS011;49845;47.130;142.766;2023-01-05T08:15:40;4.82;;;2.20;;
63699;SDS011;49845;47.130;142.766;2023-01-05T08:18:19;12.18;;;4.05;;
63699;SDS011;49845;47.130;142.766;2023-01-05T08:21:04;21.98;;;5.25;;
63699;SDS011;49845;47.130;142.766;2023-01-05T08:23:56;17.50;;;4.38;;
63699;SDS011;49845;47.130;142.766;2023-01-05T08:27:14;6.18;;;2.40;;
63699;SDS011;49845;47.130;142.766;2023-01-05T08:30:31;5.95;;;2.03;;
63699;SDS011;49845;47.130;142.766;2023-01-05T08:33:25;4.68;;;2.13;;
63699;SDS011;49845;47.130;142.766;2023-01-05T08:36:16;4.78;;;2.40;;
63699;SDS011;49845;47.130;142.766;2023-01-05T08:39:16;27.75;;;7.70;;
63699;SDS011;49845;47.130;142.766;2023-01-05T08:42:07;8.40;;;4.00;;
63699;SDS011;49845;47.130;142.766;2023-01-05T08:44:54;8.82;;;2.90;;
63699;SDS011;49845;47.130;142.766;2023-01-05T08:47:34;8.52;;;2.35;;
63699;SDS011;49845;47.130;142.766;2023-01-05T08:50:40;6.40;;;2.50;;
63699;SDS011;49845;47.130;142.766;2023-01-05T08:53:27;4.57;;;1.85;;
63699;SDS011;49845;47.130;142.766;2023-01-05T08:56:27;8.52;;;2.35;;
63699;SDS011;49845;47.130;142.766;2023-01-05T08:59:05;5.80;;;2.92;;
63699;SDS011;49845;47.130;142.766;2023-01-05T09:01:51;18.63;;;7.65;;
63699;SDS011;49845;47.130;142.766;2023-01-05T09:05:02;15.40;;;6.63;;
63699;SDS011;49845;47.130;142.766;2023-01-05T09:07:56;11.60;;;2.92;;
63699;SDS011;49845;47.130;142.766;2023-01-05T09:10:33;11.13;;;3.67;;
63699;SDS011;49845;47.130;142.766;2023-01-05T09:13:37;5.00;;;2.22;;
63699;SDS011;49845;47.130;142.766;2023-01-05T09:16:24;5.72;;;2.47;;
63699;SDS011;49845;47.130;142.766;2023-01-05T09:19:30;8.38;;;2.38;;
63699;SDS011;49845;47.130;142.766;2023-01-05T09:22:26;6.18;;;2.60;;
63699;SDS011;49845;47.130;142.766;2023-01-05T09:25:09;8.60;;;2.13;;
63699;SDS011;49845;47.130;142.766;2023-01-05T09:27:59;5.63;;;2.05;;
63699;SDS011;49845;47.130;142.766;2023-01-05T09:30:41;5.15;;;2.40;;
63699;SDS011;49845;47.130;142.766;2023-01-05T09:33:26;17.60;;;6.70;;
63699;SDS011;49845;47.130;142.766;2023-01-05T09:36:31;72.93;;;25.55;;
63699;SDS011;49845;47.130;142.766;2023-01-05T09:39:33;70.18;;;23.90;;
63699;SDS011;49845;47.130;142.766;2023-01-05T09:42:45;20.52;;;10.20;;
63699;SDS011;49845;47.130;142.766;2023-01-05T09:45:41;8.70;;;4.07;;
63699;SDS011;49845;47.130;142.766;2023-01-05T09:48:37;10.48;;;4.63;;
63699;SDS011;49845;47.130;142.766;2023-01-05T09:51:46;8.60;;;3.42;;
63699;SDS011;49845;47.130;142.766;2023-01-05T09:54:49;5.15;;;2.70;;
63699;SDS011;49845;47.130;142.766;2023-01-05T09:57:34;6.57;;;3.45;;
63699;SDS011;49845;47.130;142.766;2023-01-05T10:00:40;5.95;;;2.28;;
63699;SDS011;49845;47.130;142.766;2023-01-05T10:03:56;8.15;;;2.55;;
63699;SDS011;49845;47.130;142.766;2023-01-05T10:07:02;4.35;;;2.33;;
63699;SDS011;49845;47.130;142.766;2023-01-05T10:10:04;2.78;;;2.17;;
63699;SDS011;49845;47.130;142.766;2023-01-05T10:13:03;7.57;;;2.28;;
63699;SDS011;49845;47.130;142.766;2023-01-05T10:15:52;5.85;;;2.47;;
63699;SDS011;49845;47.130;142.766;2023-01-05T10:18:29;2.53;;;2.10;;
63699;SDS011;49845;47.130;142.766;2023-01-05T10:25:37;4.03;;;2.30;;
63699;SDS011;49845;47.130;142.766;2023-01-05T10:28:38;2.30;;;2.10;;
63699;SDS011;49845;47.130;142.766;2023-01-05T10:31:43;6.28;;;2.38;;
63699;SDS011;49845;47.130;142.766;2023-01-05T10:34:51;11.57;;;3.85;;
63699;SDS011;49845;47.130;142.766;2023-01-05T10:38:04;10.07;;;3.72;;
63699;SDS011;49845;47.130;142.766;2023-01-05T10:41:11;6.40;;;3.20;;
63699;SDS011;49845;47.130;142.766;2023-01-05T10:44:42;6.05;;;2.92;;
63699;SDS011;49845;47.130;142.766;2023-01-05T10:47:37;3.50;;;2.00;;
63699;SDS011;49845;47.130;142.766;2023-01-05T10:53:27;14.07;;;5.40;;
63699;SDS011;49845;47.130;142.766;2023-01-05T10:56:21;7.25;;;3.15;;
63699;SDS011;49845;47.130;142.766;2023-01-05T10:59:17;7.07;;;3.10;;
63699;SDS011;49845;47.130;142.766;2023-01-05T11:02:12;5.13;;;2.70;;
63699;SDS011;49845;47.130;142.766;2023-01-05T11:04:58;7.82;;;3.33;;
63699;SDS011;49845;47.130;142.766;2023-01-05T11:08:20;26.13;;;8.98;;
63699;SDS011;49845;47.130;142.766;2023-01-05T11:11:25;34.55;;;10.05;;
63699;SDS011;49845;47.130;142.766;2023-01-05T11:14:34;26.60;;;7.20;;
63699;SDS011;49845;47.130;142.766;2023-01-05T11:17:25;45.60;;;11.15;;
63699;SDS011;49845;47.130;142.766;2023-01-05T11:20:13;28.92;;;8.73;;
63699;SDS011;49845;47.130;142.766;2023-01-05T11:22:54;20.40;;;5.53;;
63699;SDS011;49845;47.130;142.766;2023-01-05T11:25:38;13.05;;;3.97;;
63699;SDS011;49845;47.130;142.766;2023-01-05T11:31:52;8.90;;;3.25;;
63699;SDS011;49845;47.130;142.766;2023-01-05T11:34:37;6.13;;;3.10;;
63699;SDS011;49845;47.130;142.766;2023-01-05T11:37:21;7.30;;;2.92;;
63699;SDS011;49845;47.130;142.766;2023-01-05T11:40:05;4.28;;;2.53;;
63699;SDS011;49845;47.130;142.766;2023-01-05T11:43:14;5.93;;;3.28;;
63699;SDS011;49845;47.130;142.766;2023-01-05T11:46:05;15.98;;;6.00;;
63699;SDS011;49845;47.130;142.766;2023-01-05T11:48:55;6.53;;;3.30;;
63699;SDS011;49845;47.130;142.766;2023-01-05T11:51:50;6.82;;;2.92;;
63699;SDS011;49845;47.130;142.766;2023-01-05T11:54:35;5.32;;;2.67;;
63699;SDS011;49845;47.130;142.766;2023-01-05T11:57:25;2.40;;;1.90;;
63699;SDS011;49845;47.130;142.766;2023-01-05T12:00:37;6.07;;;2.72;;
63699;SDS011;49845;47.130;142.766;2023-01-05T12:03:32;5.85;;;2.88;;
63699;SDS011;49845;47.130;142.766;2023-01-05T12:06:50;4.15;;;1.98;;
63699;SDS011;49845;47.130;142.766;2023-01-05T12:09:49;9.30;;;2.40;;
63699;SDS011;49845;47.130;142.766;2023-01-05T12:12:55;5.45;;;2.80;;
63699;SDS011;49845;47.130;142.766;2023-01-05T12:15:54;4.70;;;1.85;;
63699;SDS011;49845;47.130;142.766;2023-01-05T12:25:56;6.20;;;2.88;;
63699;SDS011;49845;47.130;142.766;2023-01-05T12:29:15;4.35;;;2.63;;
63699;SDS011;49845;47.130;142.766;2023-01-05T12:33:09;3.42;;;2.28;;
63699;SDS011;49845;47.130;142.766;2023-01-05T12:36:49;9.48;;;4.07;;
63699;SDS011;49845;47.130;142.766;2023-01-05T12:48:30;7.18;;;2.83;;
63699;SDS011;49845;47.130;142.766;2023-01-05T12:51:27;7.22;;;3.95;;
63699;SDS011;49845;47.130;142.766;2023-01-05T12:54:16;9.30;;;4.40;;
63699;SDS011;49845;47.130;142.766;2023-01-05T12:57:02;11.20;;;5.00;;
63699;SDS011;49845;47.130;142.766;2023-01-05T13:00:03;6.95;;;2.53;;
63699;SDS011;49845;47.130;142.766;2023-01-05T13:02:47;8.27;;;2.53;;
63699;SDS011;49845;47.130;142.766;2023-01-05T13:05:33;6.27;;;3.70;;
63699;SDS011;49845;47.130;142.766;2023-01-05T13:08:14;7.43;;;3.13;;
63699;SDS011;49845;47.130;142.766;2023-01-05T13:11:35;4.57;;;1.90;;
63699;SDS011;49845;47.130;142.766;2023-01-05T13:14:43;5.13;;;2.00;;
63699;SDS011;49845;47.130;142.766;2023-01-05T13:17:37;3.63;;;2.30;;
63699;SDS011;49845;47.130;142.766;2023-01-05T13:20:38;5.07;;;2.13;;
63699;SDS011;49845;47.130;142.766;2023-01-05T13:23:30;6.97;;;1.83;;
63699;SDS011;49845;47.130;142.766;2023-01-05T13:26:10;5.65;;;1.92;;
63699;SDS011;49845;47.130;142.766;2023-01-05T13:29:04;4.35;;;2.10;;
63699;SDS011;49845;47.130;142.766;2023-01-05T13:31:55;5.18;;;2.00;;
63699;SDS011;49845;47.130;142.766;2023-01-05T13:35:04;6.38;;;1.90;;
63699;SDS011;49845;47.130;142.766;2023-01-05T13:41:28;6.68;;;1.92;;
63699;SDS011;49845;47.130;142.766;2023-01-05T13:44:33;9.18;;;1.80;;
63699;SDS011;49845;47.130;142.766;2023-01-05T13:47:42;2.90;;;1.73;;
63699;SDS011;49845;47.130;142.766;2023-01-05T13:50:43;3.50;;;1.98;;
63699;SDS011;49845;47.130;142.766;2023-01-05T13:54:03;2.20;;;1.63;;
63699;SDS011;49845;47.130;142.766;2023-01-05T13:57:41;4.82;;;1.88;;
63699;SDS011;49845;47.130;142.766;2023-01-05T14:00:42;3.15;;;2.00;;
63699;SDS011;49845;47.130;142.766;2023-01-05T14:03:52;6.00;;;1.85;;
63699;SDS011;49845;47.130;142.766;2023-01-05T14:06:30;2.55;;;1.85;;
63699;SDS011;49845;47.130;142.766;2023-01-05T14:09:26;2.60;;;1.77;;
63699;SDS011;49845;47.130;142.766;2023-01-05T14:15:40;4.88;;;2.53;;
63699;SDS011;49845;47.130;142.766;2023-01-05T14:24:48;14.85;;;4.20;;
63699;SDS011;49845;47.130;142.766;2023-01-05T14:27:35;7.13;;;3.60;;
63699;SDS011;49845;47.130;142.766;2023-01-05T14:34:30;15.45;;;5.80;;
63699;SDS011;49845;47.130;142.766;2023-01-05T14:37:31;22.10;;;7.25;;
63699;SDS011;49845;47.130;142.766;2023-01-05T14:40:24;20.60;;;7.93;;
63699;SDS011;49845;47.130;142.766;2023-01-05T14:43:32;4.75;;;3.60;;
63699;SDS011;49845;47.130;142.766;2023-01-05T14:46:42;11.40;;;4.38;;
63699;SDS011;49845;47.130;142.766;2023-01-05T14:49:35;9.35;;;3.38;;
63699;SDS011;49845;47.130;142.766;2023-01-05T14:52:55;22.17;;;5.10;;
63699;SDS011;49845;47.130;142.766;2023-01-05T14:55:36;14.52;;;4.90;;
63699;SDS011;49845;47.130;142.766;2023-01-05T14:58:50;17.52;;;5.65;;
63699;SDS011;49845;47.130;142.766;2023-01-05T15:01:56;19.52;;;5.00;;
63699;SDS011;49845;47.130;142.766;2023-01-05T15:04:43;32.35;;;8.60;;
63699;SDS011;49845;47.130;142.766;2023-01-05T15:07:59;12.10;;;4.40;;
63699;SDS011;49845;47.130;142.766;2023-01-05T15:11:33;24.67;;;8.00;;
63699;SDS011;49845;47.130;142.766;2023-01-05T15:28:04;67.93;;;16.67;;
63699;SDS011;49845;47.130;142.766;2023-01-05T15:37:20;24.50;;;7.97;;
63699;SDS011;49845;47.130;142.766;2023-01-05T15:44:14;7.20;;;3.35;;
63699;SDS011;49845;47.130;142.766;2023-01-05T15:47:02;11.48;;;3.85;;
63699;SDS011;49845;47.130;142.766;2023-01-05T15:52:50;19.30;;;5.90;;
63699;SDS011;49845;47.130;142.766;2023-01-05T15:55:31;43.50;;;11.23;;
63699;SDS011;49845;47.130;142.766;2023-01-05T15:58:26;9.73;;;3.95;;
63699;SDS011;49845;47.130;142.766;2023-01-05T16:01:15;38.38;;;10.30;;
63699;SDS011;49845;47.130;142.766;2023-01-05T16:04:06;19.58;;;6.88;;
63699;SDS011;49845;47.130;142.766;2023-01-05T16:07:03;16.95;;;5.90;;
63699;SDS011;49845;47.130;142.766;2023-01-05T16:09:46;9.70;;;3.97;;
63699;SDS011;49845;47.130;142.766;2023-01-05T16:12:42;11.45;;;4.38;;
63699;SDS011;49845;47.130;142.766;2023-01-05T16:15:36;3.47;;;2.10;;
63699;SDS011;49845;47.130;142.766;2023-01-05T16:18:35;20.15;;;6.97;;
63699;SDS011;49845;47.130;142.766;2023-01-05T16:21:32;5.72;;;2.92;;
63699;SDS011;49845;47.130;142.766;2023-01-05T16:24:24;12.63;;;4.40;;
63699;SDS011;49845;47.130;142.766;2023-01-05T16:30:26;10.27;;;3.83;;
63699;SDS011;49845;47.130;142.766;2023-01-05T16:33:21;3.80;;;2.53;;
63699;SDS011;49845;47.130;142.766;2023-01-05T16:36:08;17.50;;;6.50;;
63699;SDS011;49845;47.130;142.766;2023-01-05T16:39:11;14.57;;;7.25;;
63699;SDS011;49845;47.130;142.766;2023-01-05T16:44:52;13.38;;;4.90;;
63699;SDS011;49845;47.130;142.766;2023-01-05T16:47:38;6.55;;;3.60;;
63699;SDS011;49845;47.130;142.766;2023-01-05T16:53:39;3.17;;;2.35;;
63699;SDS011;49845;47.130;142.766;2023-01-05T16:56:42;6.22;;;3.58;;
63699;SDS011;49845;47.130;142.766;2023-01-05T16:59:31;7.38;;;3.25;;
63699;SDS011;49845;47.130;142.766;2023-01-05T17:02:45;3.00;;;2.15;;
63699;SDS011;49845;47.130;142.766;2023-01-05T17:05:23;9.35;;;3.70;;
63699;SDS011;49845;47.130;142.766;2023-01-05T17:08:02;14.65;;;4.90;;
63699;SDS011;49845;47.130;142.766;2023-01-05T17:10:47;6.85;;;2.88;;
63699;SDS011;49845;47.130;142.766;2023-01-05T17:13:46;2.58;;;1.92;;
63699;SDS011;49845;47.130;142.766;2023-01-05T17:16:48;2.13;;;1.92;;
63699;SDS011;49845;47.130;142.766;2023-01-05T17:19:36;2.33;;;1.90;;
63699;SDS011;49845;47.130;142.766;2023-01-05T17:22:22;5.53;;;3.90;;
63699;SDS011;49845;47.130;142.766;2023-01-05T17:25:03;3.88;;;2.10;;
63699;SDS011;49845;47.130;142.766;2023-01-05T17:27:46;4.70;;;3.00;;
63699;SDS011;49845;47.130;142.766;2023-01-05T17:30:39;4.10;;;2.10;;
63699;SDS011;49845;47.130;142.766;2023-01-05T17:33:23;4.68;;;2.33;;
63699;SDS011;49845;47.130;142.766;2023-01-05T17:36:09;2.00;;;1.90;;
63699;SDS011;49845;47.130;142.766;2023-01-05T17:41:27;2.67;;;2.47;;
63699;SDS011;49845;47.130;142.766;2023-01-05T17:44:20;2.78;;;2.20;;
63699;SDS011;49845;47.130;142.766;2023-01-05T17:46:59;2.42;;;2.22;;
63699;SDS011;49845;47.130;142.766;2023-01-05T17:49:54;4.00;;;2.88;;
63699;SDS011;49845;47.130;142.766;2023-01-05T17:52:47;2.20;;;2.00;;
63699;SDS011;49845;47.130;142.766;2023-01-05T17:55:27;4.50;;;2.10;;
63699;SDS011;49845;47.130;142.766;2023-01-05T17:58:20;4.65;;;2.60;;
63699;SDS011;49845;47.130;142.766;2023-01-05T18:00:58;2.63;;;2.42;;
63699;SDS011;49845;47.130;142.766;2023-01-05T18:03:46;3.45;;;2.53;;
63699;SDS011;49845;47.130;142.766;2023-01-05T18:09:27;1.83;;;1.73;;
63699;SDS011;49845;47.130;142.766;2023-01-05T18:12:18;4.03;;;2.13;;
63699;SDS011;49845;47.130;142.766;2023-01-05T18:15:06;3.72;;;1.92;;
63699;SDS011;49845;47.130;142.766;2023-01-05T18:17:45;3.92;;;2.20;;
63699;SDS011;49845;47.130;142.766;2023-01-05T18:20:33;3.58;;;2.25;;
63699;SDS011;49845;47.130;142.766;2023-01-05T18:23:17;4.47;;;2.10;;
63699;SDS011;49845;47.130;142.766;2023-01-05T18:26:05;2.85;;;2.15;;
63699;SDS011;49845;47.130;142.766;2023-01-05T18:28:55;2.17;;;1.95;;
63699;SDS011;49845;47.130;142.766;2023-01-05T18:31:48;3.75;;;2.45;;
63699;SDS011;49845;47.130;142.766;2023-01-05T18:34:50;6.45;;;2.13;;
63699;SDS011;49845;47.130;142.766;2023-01-05T18:37:37;2.15;;;1.95;;
63699;SDS011;49845;47.130;142.766;2023-01-05T18:40:34;2.60;;;2.20;;
63699;SDS011;49845;47.130;142.766;2023-01-05T18:43:19;3.15;;;2.00;;
63699;SDS011;49845;47.130;142.766;2023-01-05T18:46:00;2.47;;;2.03;;
63699;SDS011;49845;47.130;142.766;2023-01-05T18:48:57;4.80;;;2.20;;
63699;SDS011;49845;47.130;142.766;2023-01-05T18:51:37;2.45;;;2.00;;
63699;SDS011;49845;47.130;142.766;2023-01-05T18:54:51;2.78;;;2.22;;
63699;SDS011;49845;47.130;142.766;2023-01-05T18:57:42;3.53;;;2.45;;
63699;SDS011;49845;47.130;142.766;2023-01-05T19:00:51;2.35;;;2.17;;
63699;SDS011;49845;47.130;142.766;2023-01-05T19:03:40;3.25;;;2.10;;
63699;SDS011;49845;47.130;142.766;2023-01-05T19:06:22;2.65;;;2.25;;
63699;SDS011;49845;47.130;142.766;2023-01-05T19:09:14;3.65;;;2.10;;
63699;SDS011;49845;47.130;142.766;2023-01-05T19:15:11;3.38;;;1.90;;
63699;SDS011;49845;47.130;142.766;2023-01-05T19:18:02;4.63;;;2.47;;
63699;SDS011;49845;47.130;142.766;2023-01-05T19:20:56;2.70;;;2.33;;
63699;SDS011;49845;47.130;142.766;2023-01-05T19:23:37;2.42;;;2.22;;
63699;SDS011;49845;47.130;142.766;2023-01-05T19:26:34;8.82;;;3.08;;
63699;SDS011;49845;47.130;142.766;2023-01-05T19:29:30;3.38;;;2.47;;
63699;SDS011;49845;47.130;142.766;2023-01-05T19:32:14;4.00;;;2.65;;
63699;SDS011;49845;47.130;142.766;2023-01-05T19:35:01;3.05;;;2.20;;